sensor_id;sensor_type;location;lat;lon;timestamp;P1;durP1;ratioP1;P2;durP2;ratioP2
66609;SDS011;53468;48.276;14.416;2023-08-08T05:27:50;4.45;;;2.78;;
66609;SDS011;53468;48.276;14.416;2023-08-08T05:33:04;2.47;;;1.95;;
66609;SDS011;53468;48.276;14.416;2023-08-08T05:38:27;6.57;;;2.65;;
66609;SDS011;53468;48.276;14.416;2023-08-08T07:24:38;3.75;;;2.45;;
66609;SDS011;53468;48.276;14.416;2023-08-08T07:35:22;2.15;;;1.40;;
66609;SDS011;53468;48.276;14.416;2023-08-08T08:04:35;3.13;;;1.40;;
66609;SDS011;53468;48.276;14.416;2023-08-08T08:09:42;2.38;;;1.20;;
66609;SDS011;53468;48.276;14.416;2023-08-08T08:15:08;3.63;;;1.27;;
66609;SDS011;53468;48.276;14.416;2023-08-08T08:37:22;4.00;;;1.05;;
66609;SDS011;53468;48.276;14.416;2023-08-08T08:42:58;2.33;;;1.45;;
66609;SDS011;53468;48.276;14.416;2023-08-08T08:59:49;1.70;;;1.20;;
66609;SDS011;53468;48.276;14.416;2023-08-08T09:05:09;3.10;;;1.77;;
66609;SDS011;53468;48.276;14.416;2023-08-08T09:10:13;3.20;;;1.35;;
66609;SDS011;53468;48.276;14.416;2023-08-08T09:21:13;2.33;;;1.15;;
66609;SDS011;53468;48.276;14.416;2023-08-08T09:26:37;2.35;;;1.42;;
66609;SDS011;53468;48.276;14.416;2023-08-08T09:48:58;1.70;;;0.98;;
66609;SDS011;53468;48.276;14.416;2023-08-08T11:49:29;2.15;;;0.70;;
66609;SDS011;53468;48.276;14.416;2023-08-08T11:54:31;1.90;;;1.08;;
66609;SDS011;53468;48.276;14.416;2023-08-08T11:59:33;2.53;;;0.90;;
66609;SDS011;53468;48.276;14.416;2023-08-08T12:04:38;1.20;;;0.85;;
66609;SDS011;53468;48.276;14.416;2023-08-08T12:09:46;2.17;;;0.90;;
66609;SDS011;53468;48.276;14.416;2023-08-08T12:14:48;1.48;;;0.68;;
66609;SDS011;53468;48.276;14.416;2023-08-08T12:19:57;0.85;;;0.70;;
66609;SDS011;53468;48.276;14.416;2023-08-08T12:25:30;2.45;;;0.93;;
66609;SDS011;53468;48.276;14.416;2023-08-08T12:31:02;1.50;;;0.73;;
66609;SDS011;53468;48.276;14.416;2023-08-08T12:41:47;2.33;;;1.30;;
66609;SDS011;53468;48.276;14.416;2023-08-08T12:47:14;3.38;;;1.20;;
66609;SDS011;53468;48.276;14.416;2023-08-08T12:52:27;2.17;;;1.13;;
66609;SDS011;53468;48.276;14.416;2023-08-08T12:57:55;1.92;;;1.00;;
66609;SDS011;53468;48.276;14.416;2023-08-08T13:03:20;1.75;;;1.23;;
66609;SDS011;53468;48.276;14.416;2023-08-08T13:08:29;4.03;;;0.82;;
66609;SDS011;53468;48.276;14.416;2023-08-08T13:13:36;2.40;;;0.93;;
66609;SDS011;53468;48.276;14.416;2023-08-08T13:18:41;2.47;;;1.30;;
66609;SDS011;53468;48.276;14.416;2023-08-08T13:23:56;2.40;;;1.00;;
66609;SDS011;53468;48.276;14.416;2023-08-08T13:29:23;1.27;;;0.90;;
66609;SDS011;53468;48.276;14.416;2023-08-08T13:34:50;2.35;;;0.68;;
66609;SDS011;53468;48.276;14.416;2023-08-08T13:39:58;1.88;;;0.80;;
66609;SDS011;53468;48.276;14.416;2023-08-08T13:45:26;3.15;;;1.00;;
66609;SDS011;53468;48.276;14.416;2023-08-08T13:50:44;1.77;;;0.98;;
66609;SDS011;53468;48.276;14.416;2023-08-08T13:56:01;3.38;;;0.80;;
66609;SDS011;53468;48.276;14.416;2023-08-08T14:01:10;2.13;;;1.05;;
66609;SDS011;53468;48.276;14.416;2023-08-08T14:06:23;1.38;;;0.95;;
66609;SDS011;53468;48.276;14.416;2023-08-08T14:11:51;2.45;;;0.88;;
66609;SDS011;53468;48.276;14.416;2023-08-08T14:17:17;2.20;;;0.77;;
66609;SDS011;53468;48.276;14.416;2023-08-08T14:22:30;3.00;;;1.15;;
66609;SDS011;53468;48.276;14.416;2023-08-08T14:27:40;1.15;;;0.70;;
66609;SDS011;53468;48.276;14.416;2023-08-08T14:32:50;1.65;;;1.00;;
66609;SDS011;53468;48.276;14.416;2023-08-08T14:37:56;1.05;;;0.77;;
66609;SDS011;53468;48.276;14.416;2023-08-08T14:43:06;1.52;;;0.80;;
66609;SDS011;53468;48.276;14.416;2023-08-08T14:48:12;2.95;;;1.10;;
66609;SDS011;53468;48.276;14.416;2023-08-08T14:53:17;1.88;;;1.25;;
66609;SDS011;53468;48.276;14.416;2023-08-08T15:03:52;1.95;;;1.00;;
66609;SDS011;53468;48.276;14.416;2023-08-08T15:08:58;1.75;;;0.98;;
66609;SDS011;53468;48.276;14.416;2023-08-08T15:14:06;2.15;;;0.93;;
66609;SDS011;53468;48.276;14.416;2023-08-08T15:19:12;2.22;;;1.00;;
66609;SDS011;53468;48.276;14.416;2023-08-08T15:24:19;2.33;;;1.00;;
66609;SDS011;53468;48.276;14.416;2023-08-08T15:29:29;1.75;;;1.00;;
66609;SDS011;53468;48.276;14.416;2023-08-08T15:34:34;2.47;;;1.00;;
66609;SDS011;53468;48.276;14.416;2023-08-08T15:39:45;1.50;;;1.00;;
66609;SDS011;53468;48.276;14.416;2023-08-08T15:44:55;2.05;;;0.82;;
66609;SDS011;53468;48.276;14.416;2023-08-08T15:50:07;1.58;;;0.88;;
66609;SDS011;53468;48.276;14.416;2023-08-08T15:55:11;2.03;;;0.85;;
66609;SDS011;53468;48.276;14.416;2023-08-08T16:00:20;1.83;;;0.98;;
66609;SDS011;53468;48.276;14.416;2023-08-08T16:05:24;3.90;;;0.70;;
66609;SDS011;53468;48.276;14.416;2023-08-08T16:10:29;1.67;;;0.82;;
66609;SDS011;53468;48.276;14.416;2023-08-08T16:15:47;2.67;;;1.30;;
66609;SDS011;53468;48.276;14.416;2023-08-08T16:21:13;3.20;;;1.13;;
66609;SDS011;53468;48.276;14.416;2023-08-08T16:26:23;2.45;;;1.25;;
66609;SDS011;53468;48.276;14.416;2023-08-08T16:31:53;1.63;;;1.10;;
66609;SDS011;53468;48.276;14.416;2023-08-08T16:37:19;2.83;;;1.08;;
66609;SDS011;53468;48.276;14.416;2023-08-08T16:42:24;2.53;;;1.00;;
66609;SDS011;53468;48.276;14.416;2023-08-08T16:47:33;2.42;;;1.20;;
66609;SDS011;53468;48.276;14.416;2023-08-08T16:53:03;2.83;;;1.20;;
66609;SDS011;53468;48.276;14.416;2023-08-08T16:58:12;1.52;;;0.80;;
66609;SDS011;53468;48.276;14.416;2023-08-08T17:03:38;6.68;;;1.10;;
66609;SDS011;53468;48.276;14.416;2023-08-08T17:08:53;1.67;;;0.80;;
66609;SDS011;53468;48.276;14.416;2023-08-08T17:20:05;1.95;;;1.10;;
66609;SDS011;53468;48.276;14.416;2023-08-08T17:25:09;2.65;;;1.00;;
66609;SDS011;53468;48.276;14.416;2023-08-08T17:30:18;5.72;;;1.85;;
66609;SDS011;53468;48.276;14.416;2023-08-08T17:35:39;3.72;;;1.13;;
66609;SDS011;53468;48.276;14.416;2023-08-08T17:40:49;4.47;;;1.30;;
66609;SDS011;53468;48.276;14.416;2023-08-08T17:52:01;5.18;;;1.73;;
66609;SDS011;53468;48.276;14.416;2023-08-08T17:57:50;2.90;;;1.33;;
66609;SDS011;53468;48.276;14.416;2023-08-08T18:03:31;1.67;;;1.10;;
66609;SDS011;53468;48.276;14.416;2023-08-08T19:50:30;2.97;;;1.38;;
66609;SDS011;53468;48.276;14.416;2023-08-08T19:56:13;4.20;;;1.30;;
66609;SDS011;53468;48.276;14.416;2023-08-08T20:14:10;4.18;;;1.92;;
66609;SDS011;53468;48.276;14.416;2023-08-08T21:28:15;3.38;;;1.45;;
66609;SDS011;53468;48.276;14.416;2023-08-08T21:33:33;2.75;;;1.55;;
66609;SDS011;53468;48.276;14.416;2023-08-08T21:39:14;2.97;;;1.70;;
66609;SDS011;53468;48.276;14.416;2023-08-08T21:44:36;4.13;;;1.48;;
66609;SDS011;53468;48.276;14.416;2023-08-08T21:50:07;3.20;;;1.55;;
66609;SDS011;53468;48.276;14.416;2023-08-08T22:13:51;4.28;;;1.80;;
66609;SDS011;53468;48.276;14.416;2023-08-08T22:19:45;4.63;;;1.73;;
66609;SDS011;53468;48.276;14.416;2023-08-08T22:25:29;4.13;;;1.60;;
66609;SDS011;53468;48.276;14.416;2023-08-08T22:31:03;3.85;;;1.83;;
66609;SDS011;53468;48.276;14.416;2023-08-08T22:36:45;2.55;;;1.83;;
66609;SDS011;53468;48.276;14.416;2023-08-08T22:48:07;2.40;;;1.58;;
66609;SDS011;53468;48.276;14.416;2023-08-08T22:53:30;3.28;;;1.65;;
66609;SDS011;53468;48.276;14.416;2023-08-08T22:59:13;3.73;;;1.87;;
66609;SDS011;53468;48.276;14.416;2023-08-08T23:05:27;5.65;;;2.13;;
66609;SDS011;53468;48.276;14.416;2023-08-08T23:11:46;3.22;;;1.88;;
66609;SDS011;53468;48.276;14.416;2023-08-08T23:17:49;3.35;;;1.60;;
66609;SDS011;53468;48.276;14.416;2023-08-08T23:23:36;3.85;;;1.63;;
66609;SDS011;53468;48.276;14.416;2023-08-08T23:29:22;5.07;;;1.92;;
66609;SDS011;53468;48.276;14.416;2023-08-08T23:35:01;2.97;;;1.50;;
66609;SDS011;53468;48.276;14.416;2023-08-08T23:41:09;3.83;;;1.92;;
66609;SDS011;53468;48.276;14.416;2023-08-08T23:47:03;3.25;;;1.73;;
66609;SDS011;53468;48.276;14.416;2023-08-08T23:52:27;2.50;;;1.38;;
